createdAt,value
2022-07-31T00:02:18.603Z,4183.5
2022-07-31T00:07:53.544Z,4182.3
2022-07-31T00:13:59.585Z,4183.1
2022-07-31T00:19:56.534Z,4177.8
2022-07-31T00:25:29.330Z,4179.8
2022-07-31T00:31:04.097Z,4180
2022-07-31T00:36:38.958Z,4178.1
2022-07-31T00:42:14.887Z,4180.6
2022-07-31T00:47:57.752Z,4177.8
2022-07-31T00:53:32.722Z,4178.3
2022-07-31T00:59:07.752Z,4176.8
2022-07-31T01:04:46.659Z,4179.6
2022-07-31T01:10:21.583Z,4179.8
2022-07-31T01:15:56.381Z,4176.8
2022-07-31T01:21:31.299Z,4176.3
2022-07-31T01:27:07.756Z,4176.8
2022-07-31T01:32:42.600Z,4176.9
2022-07-31T01:38:17.408Z,4175.8
2022-07-31T01:43:53.390Z,4174.8
2022-07-31T01:49:30.222Z,4178
2022-07-31T01:55:05.111Z,4176.3
2022-07-31T02:00:42.058Z,4175.8
2022-07-31T02:06:17.349Z,4173.6
2022-07-31T02:11:57.442Z,4174.6
2022-07-31T02:17:54.134Z,4173.4
2022-07-31T02:23:27.852Z,4176.8
2022-07-31T02:29:02.921Z,4174.1
2022-07-31T02:34:38.081Z,4172.1
2022-07-31T02:40:12.935Z,4173.4
2022-07-31T02:45:49.260Z,4174.6
2022-07-31T02:51:25.277Z,4173.8
2022-07-31T02:57:00.011Z,4174.3
2022-07-31T03:02:39.203Z,4174.6
2022-07-31T03:08:13.902Z,4172.8
2022-07-31T03:13:48.716Z,4172.4
2022-07-31T03:19:45.406Z,4170.6
2022-07-31T03:25:23.114Z,4170.7
2022-07-31T03:30:58.151Z,4171.3
2022-07-31T03:36:32.722Z,4171.6
2022-07-31T03:42:20.091Z,4171.4
2022-07-31T03:47:55.120Z,4169.7
2022-07-31T03:53:30.786Z,4169.7
2022-07-31T03:59:09.221Z,4170.9
2022-07-31T04:04:44.108Z,4169.1
2022-07-31T04:10:18.877Z,4168.2
2022-07-31T04:15:53.876Z,4170.2
2022-07-31T04:21:28.623Z,4168.6
2022-07-31T04:27:03.483Z,4169.9
2022-07-31T04:32:38.321Z,4167.1
2022-07-31T04:38:14.108Z,4169.4
2022-07-31T04:43:48.907Z,4168.7
2022-07-31T04:49:24.787Z,4163.7
2022-07-31T04:54:59.650Z,4168.4
2022-07-31T05:00:34.538Z,4167.2
2022-07-31T05:06:12.725Z,4167.6
2022-07-31T05:11:47.579Z,4166.9
2022-07-31T05:17:44.300Z,4163
2022-07-31T05:23:17.221Z,4166.4
2022-07-31T05:28:59.454Z,4167.6
2022-07-31T05:34:34.397Z,4168.6
2022-07-31T05:40:10.301Z,4176.6
2022-07-31T05:45:45.126Z,4173.6
2022-07-31T05:51:22.395Z,4177.5
2022-07-31T05:56:58.177Z,4180.3
2022-07-31T06:02:32.960Z,4182.5
2022-07-31T06:08:09.965Z,4180
2022-07-31T06:13:45.130Z,4182.6
2022-07-31T06:19:41.885Z,4183.5
2022-07-31T06:25:15.918Z,4186.3
2022-07-31T06:30:51.997Z,4197
2022-07-31T06:36:26.933Z,4199.6
2022-07-31T06:42:05.028Z,4196.5
2022-07-31T06:47:41.315Z,4200.7
2022-07-31T06:53:17.388Z,4195.5
2022-07-31T06:58:52.321Z,4195.4
2022-07-31T07:05:07.812Z,4192.2
2022-07-31T07:10:42.817Z,4195.4
2022-07-31T07:16:39.690Z,4201.4
2022-07-31T07:22:13.290Z,4199.6
2022-07-31T07:27:48.043Z,4196.4
2022-07-31T07:33:43.888Z,4198.7
2022-07-31T07:39:19.718Z,4208.1
2022-07-31T07:44:54.505Z,4216
2022-07-31T07:50:30.466Z,4219
2022-07-31T07:56:05.464Z,4217.5
2022-07-31T08:01:41.039Z,4214.5
2022-07-31T08:07:16.472Z,4213.1
2022-07-31T08:12:51.483Z,4217.3
2022-07-31T08:18:48.054Z,4208.9
2022-07-31T08:24:20.818Z,4226.4
2022-07-31T08:29:57.786Z,4221.8
2022-07-31T08:35:33.636Z,4214.8
2022-07-31T08:41:08.419Z,4215
2022-07-31T08:46:43.203Z,4221.8
2022-07-31T08:52:18.930Z,4218
2022-07-31T08:57:53.935Z,4226.4
2022-07-31T09:03:28.719Z,4222
2022-07-31T09:09:03.590Z,4219
2022-07-31T09:14:38.673Z,4215.6
2022-07-31T09:20:13.441Z,4221.2
2022-07-31T09:25:52.549Z,4224.5
2022-07-31T09:31:27.235Z,4212.3
2022-07-31T09:37:05.083Z,4222
2022-07-31T09:42:56.642Z,4223.2
2022-07-31T09:48:36.371Z,4229.5
2022-07-31T09:54:11.359Z,4224
2022-07-31T09:59:46.206Z,4213.6
2022-07-31T10:05:21.540Z,4215
2022-07-31T10:10:56.698Z,4215.3
2022-07-31T10:16:53.239Z,4227.2
2022-07-31T10:22:26.127Z,4226.4
2022-07-31T10:28:01.036Z,4218
2022-07-31T10:33:46.034Z,4227
2022-07-31T10:39:20.967Z,4219
2022-07-31T10:45:05.667Z,4214
2022-07-31T10:50:40.693Z,4218.2
2022-07-31T10:56:15.701Z,4218.7
2022-07-31T11:01:54.877Z,4225.5
2022-07-31T11:07:29.790Z,4226.9
2022-07-31T11:13:04.696Z,4220.5
2022-07-31T11:19:01.253Z,4226.4
2022-07-31T11:24:33.836Z,4216.8
2022-07-31T11:30:15.034Z,4222.2
2022-07-31T11:35:49.855Z,4225.4
2022-07-31T11:41:25.754Z,4225.2
2022-07-31T11:47:00.593Z,4229.9
2022-07-31T11:52:38.725Z,4227.4
2022-07-31T11:58:13.563Z,4221.7
2022-07-31T12:03:49.485Z,4222
2022-07-31T12:10:04.760Z,4217.5
2022-07-31T12:15:39.833Z,4226.9
2022-07-31T12:21:14.752Z,4224.2
2022-07-31T12:26:52.197Z,4219.3
2022-07-31T12:32:28.206Z,4221.3
2022-07-31T12:38:49.669Z,4218.8
2022-07-31T12:44:24.791Z,4216.8
2022-07-31T12:50:00.570Z,4221.5
2022-07-31T12:55:35.833Z,4225.5
2022-07-31T13:01:11.403Z,4220.5
2022-07-31T13:06:56.358Z,4226.9
2022-07-31T13:12:31.317Z,4218
2022-07-31T13:18:28.186Z,4223.8
2022-07-31T13:24:02.116Z,4223.7
2022-07-31T13:29:37.143Z,4222.2
2022-07-31T13:35:30.169Z,4217.1
2022-07-31T13:41:05.123Z,4217
2022-07-31T13:46:39.869Z,4221.5
2022-07-31T13:52:17.454Z,4227.9
2022-07-31T13:58:02.132Z,4231
2022-07-31T14:03:38.964Z,4227.2
2022-07-31T14:09:14.910Z,4222.7
2022-07-31T14:14:49.763Z,4227.7
2022-07-31T14:20:24.751Z,4219.3
2022-07-31T14:26:02.679Z,4225.7
2022-07-31T14:31:45.985Z,4228.2
2022-07-31T14:37:21.334Z,4226.2
2022-07-31T14:42:56.261Z,4226.4
2022-07-31T14:48:31.307Z,4218.3
2022-07-31T14:54:07.220Z,4213.5
2022-07-31T14:59:43.158Z,4225.4
2022-07-31T15:07:47.418Z,4222.5
2022-07-31T15:13:23.330Z,4223.8
2022-07-31T15:19:19.863Z,4219
2022-07-31T15:24:52.446Z,4230.7
2022-07-31T15:30:27.198Z,4220
2022-07-31T15:36:03.282Z,4226.2
2022-07-31T15:41:38.917Z,4226.9
2022-07-31T15:47:13.945Z,4215.8
2022-07-31T15:52:48.672Z,4213.5
2022-07-31T15:58:23.370Z,4221.5
2022-07-31T16:04:02.241Z,4218.2
2022-07-31T16:10:19.386Z,4217
2022-07-31T16:15:55.018Z,4227.4
2022-07-31T16:21:30.168Z,4226
2022-07-31T16:27:09.111Z,4225.2
2022-07-31T16:32:44.882Z,4228.2
2022-07-31T16:38:19.640Z,4223
2022-07-31T16:43:54.395Z,4224.5
2022-07-31T16:49:39.009Z,4229.2
2022-07-31T16:55:14.253Z,4229.7
2022-07-31T17:00:50.234Z,4219.8
2022-07-31T17:06:38.935Z,4226.5
2022-07-31T17:12:13.990Z,4210.3
2022-07-31T17:18:10.531Z,4205.8
2022-07-31T17:23:52.311Z,4210.8
2022-07-31T17:29:27.287Z,4208.9
2022-07-31T17:35:01.862Z,4208.4
2022-07-31T17:40:45.471Z,4211.1
2022-07-31T17:46:49.932Z,4208.3
2022-07-31T17:52:24.825Z,4209.9
2022-07-31T17:57:59.551Z,4207.6
2022-07-31T18:03:34.227Z,4206.9
2022-07-31T18:09:10.988Z,4205.9
2022-07-31T18:14:45.802Z,4207.6
2022-07-31T18:20:21.119Z,4202.9
2022-07-31T18:25:56.949Z,4205.4
2022-07-31T18:31:37.266Z,4205.8
2022-07-31T18:37:12.210Z,4205.4
2022-07-31T18:42:47.058Z,4204.8
2022-07-31T18:48:22.743Z,4204.4
2022-07-31T18:53:57.387Z,4204.9
2022-07-31T18:59:33.252Z,4203.4
2022-07-31T19:05:22.625Z,4202.9
2022-07-31T19:10:57.451Z,4202.2
2022-07-31T19:16:55.714Z,4200.9
2022-07-31T19:22:31.629Z,4202.6
2022-07-31T19:28:17.880Z,4201.7
2022-07-31T19:33:52.862Z,4201.1
2022-07-31T19:39:27.597Z,4201.6
2022-07-31T19:45:03.448Z,4201.4
2022-07-31T19:50:38.112Z,4201.6
2022-07-31T19:56:22.018Z,4201.1
2022-07-31T20:01:56.958Z,4199.4
2022-07-31T20:07:34.053Z,4200.1
2022-07-31T20:13:11.372Z,4200.1
2022-07-31T20:19:07.972Z,4197.4
2022-07-31T20:24:44.243Z,4199.7
2022-07-31T20:30:19.494Z,4197.5
2022-07-31T20:35:55.157Z,4195
2022-07-31T20:41:31.032Z,4199.6
2022-07-31T20:47:05.893Z,4197
2022-07-31T20:52:49.350Z,4196.7
2022-07-31T20:58:24.213Z,4197.2
2022-07-31T21:03:59.329Z,4198.2
2022-07-31T21:09:40.291Z,4197.4
2022-07-31T21:15:48.635Z,4198.4
2022-07-31T21:21:23.657Z,4196.2
2022-07-31T21:26:59.109Z,4194.5
2022-07-31T21:32:37.341Z,4193.9
2022-07-31T21:38:13.554Z,4194.9
2022-07-31T21:44:02.188Z,4196.9
2022-07-31T21:49:38.919Z,4195.2
2022-07-31T21:55:13.553Z,4192.7
2022-07-31T22:00:49.719Z,4194.2
2022-07-31T22:06:27.355Z,4192.5
2022-07-31T22:12:03.281Z,4192
2022-07-31T22:17:59.902Z,4189.3
2022-07-31T22:23:32.420Z,4190.3
2022-07-31T22:29:07.180Z,4193.2
2022-07-31T22:34:41.999Z,4195.2
2022-07-31T22:40:16.956Z,4190.7
2022-07-31T22:45:51.908Z,4192.4
2022-07-31T22:51:26.715Z,4193.4
2022-07-31T22:57:02.471Z,4191
2022-07-31T23:02:39.559Z,4191.2
2022-07-31T23:08:14.517Z,4191.7
2022-07-31T23:13:49.385Z,4187.7
2022-07-31T23:19:55.514Z,4186.3
2022-07-31T23:25:28.231Z,4187.2
2022-07-31T23:31:03.001Z,4186.7
2022-07-31T23:36:37.839Z,4186.8
2022-07-31T23:42:12.676Z,4187.5
2022-07-31T23:47:49.762Z,4189.8
2022-07-31T23:53:24.503Z,4184.8
2022-07-31T23:58:59.727Z,4188.3
